Terminal Aerodrome Forecast
Issued by NWS

Home | Current Version | Previous Version | Text Only | Print | Product List | Glossary On
Versions: 1 2 3 4 5 6 7 8 9 10 11 12 13 14 15 16 17 18 19 20 21 22 23 24 25 26
000
FTUS44 KFWD 310200 AAA
TAFDAL
TAF AMD
KDAL 310257Z 3103/3124 13013KT P6SM BKN120 BKN250
     FM310500 16010KT P6SM VCSH OVC070
     FM310800 23009KT P6SM VCTS SCT030CB BKN100
      TEMPO 3109/3112 36015KT 4SM -TSRA BKN025CB OVC100
     FM311200 23009KT P6SM VCTS BKN030CB BKN100
     FM311400 34012KT P6SM BKN025
     FM311900 35014KT P6SM BKN035=

USA.gov is the U.S. government's official web portal to all federal, state and local government web resources and services.